Aviation Digital Data Service (ADDS)

Output produced by METARs form (1600 UTC 15 December 2017)
found at http://aviationweather.gov/adds/metars/
 
KEWN 151121Z 1512/1612 VRB03KT P6SM BKN130 
     FM151700 25010KT P6SM SCT140 
     FM152300 29006KT P6SM BKN200